CST,Max TemperatureF,Mean TemperatureF,Min TemperatureF,Max Dew PointF,MeanDew PointF,Min DewpointF,Max Humidity, Mean Humidity, Min Humidity, Max Sea Level PressureIn, Mean Sea Level PressureIn, Min Sea Level PressureIn, Max VisibilityMiles, Mean VisibilityMiles, Min VisibilityMiles, Max Wind SpeedMPH, Mean Wind SpeedMPH, Max Gust SpeedMPH,PrecipitationIn, CloudCover, Events, WindDirDegrees
2012-1-1,84,68,52,68,50,31,100,78,55,30.54,30.29,30.10,10,6,0,21,9,24,T,4,Fog-Rain,10
2012-1-2,66,53,39,31,26,22,62,41,19,30.71,30.62,30.54,10,10,10,24,11,29,0.00,0,,3
2012-1-3,64,49,33,44,35,23,77,59,40,30.61,30.49,30.32,10,10,10,16,8,20,0.00,0,,89
2012-1-4,78,60,42,59,52,41,100,74,47,30.29,30.24,30.17,10,10,10,26,11,33,0.00,1,,157
2012-1-5,75,66,57,60,57,54,93,79,56,30.30,30.21,30.12,10,10,10,17,7,23,0.00,2,,119
2012-1-6,77,64,51,60,55,49,89,70,50,30.12,30.03,29.95,10,10,10,25,10,31,0.00,3,,172
2012-1-7,81,67,52,61,56,51,100,71,42,30.04,29.97,29.93,10,6,0,14,6,15,0.00,2,Fog,170
2012-1-8,81,68,55,67,63,54,100,81,62,30.02,29.96,29.89,10,6,0,30,13,37,T,5,Fog-Rain,144
2012-1-9,80,67,54,70,60,46,93,78,62,30.08,29.93,29.86,10,10,4,31,17,36,0.01,6,Rain,212
2012-1-10,68,55,42,44,34,26,77,53,29,30.12,30.02,29.94,10,10,10,26,16,31,0.00,0,,296
2012-1-11,83,59,35,48,36,26,72,44,16,29.94,29.84,29.73,10,10,10,20,10,31,0.00,0,,209
2012-1-12,64,51,38,50,22,7,71,43,15,30.31,30.18,29.89,10,10,10,35,18,51,0.00,1,,360
2012-1-13,58,44,30,31,21,10,62,40,18,30.40,30.33,30.28,10,10,10,12,4,16,0.00,1,,74
2012-1-14,69,51,33,38,29,25,76,48,20,30.44,30.37,30.32,10,10,10,14,5,16,0.00,0,,96
2012-1-15,71,59,47,59,52,36,84,70,56,30.35,30.27,30.19,10,10,10,22,10,26,T,5,Rain,132
2012-1-16,82,70,57,66,63,57,100,79,58,30.17,30.07,29.98,10,10,7,36,18,41,0.00,2,Fog,162
2012-1-17,85,72,59,66,60,39,100,74,48,30.19,30.05,29.97,10,9,2,28,11,33,0.00,4,,130
2012-1-18,63,55,47,50,36,30,64,52,39,30.31,30.21,30.09,10,10,10,26,10,32,0.00,5,,38
2012-1-19,82,71,60,63,58,50,93,74,54,30.10,30.00,29.89,10,9,0,22,9,25,0.00,6,,181
2012-1-20,85,74,63,67,65,62,100,78,55,29.91,29.85,29.78,10,8,3,26,15,30,0.00,3,,169
2012-1-21,75,68,61,66,61,57,100,84,68,29.97,29.90,29.86,10,6,0,16,7,18,0.00,6,Fog,102
2012-1-22,85,75,65,67,65,60,100,76,51,29.89,29.82,29.75,10,7,0,30,12,38,0.00,4,Fog,149
2012-1-23,73,67,61,65,58,47,100,74,47,30.06,29.97,29.91,10,5,0,21,11,25,0.00,4,Fog,60
2012-1-24,79,72,65,70,68,60,93,80,67,29.96,29.86,29.77,10,7,1,35,18,41,T,7,Rain,125
2012-1-25,74,66,57,70,62,50,90,74,57,29.99,29.81,29.72,10,9,1,31,19,38,0.34,5,Rain,288
2012-1-26,76,61,46,49,40,32,86,54,21,30.11,30.03,29.98,10,10,10,23,11,30,0.00,0,,302
2012-1-27,78,61,43,57,46,35,84,58,32,30.11,30.04,29.95,10,10,10,28,12,33,0.00,0,,158
2012-1-28,72,62,52,55,45,34,96,65,33,30.40,30.25,30.04,10,10,10,28,15,33,0.00,2,,43
2012-1-29,67,55,43,50,42,32,77,62,46,30.47,30.38,30.32,10,10,10,17,10,21,0.00,0,,51
2012-1-30,71,62,53,63,57,49,93,80,66,30.31,30.20,30.12,10,10,6,22,10,26,0.04,6,Rain,89
2012-1-31,79,68,57,68,63,57,100,84,67,30.14,30.09,30.01,10,6,0,17,7,20,0.06,6,Fog-Rain,157